Terminal Aerodrome Forecast
Issued by NWS

Home | Current Version | Previous Version | Text Only | Print | Product List | Glossary On
Versions: 1 2 3 4 5 6 7 8 9 10 11 12 13 14 15 16 17 18 19 20 21 22 23 24 25 26 27 28 29 30
000
FTUS41 KALY 281300 AAA
TAFPSF
TAF AMD
KPSF 281318Z 2813/2912 16003KT P6SM VCSH FEW007 BKN013 OVC017
     FM281500 17005KT P6SM BKN045 BKN090
     FM281900 20007KT 3SM -TSRA BR BKN030CB BKN050
     FM282200 25011G18KT P6SM BKN050
     FM290800 27008KT P6SM SCT050=

USA.gov is the U.S. government's official web portal to all federal, state and local government web resources and services.